Perth Jandakot Airport

YPJT · Western Australia, 澳大利亚

罗盘
风向 的 风向 160° Perth Jandakot Airport 12/30
风: 4 kt, 2 beaufort

3 kt

3 kt
改变
0 ft 2.000 4.000 6.000 8.000 10.000
Cloud Cloud Cloud Cloud
SCT 5.000
Cloud Cloud Cloud Cloud
SCT 5.900
METAR YPJT 181300Z AUTO 16004KT 9999 // SCT050 SCT059 11/09 Q1025

METAR Perth Jandakot Airport - YPJT/JAD

Perth Jandakot Airport是,澳大利亚中的中型机场。 该机场位于纬度-32,09923和经度115,88040。 该机场有3条跑道: 12/30, 6R/24L 和 6L/24R. 本场的ICAO机场代码为YPJT。 该机场的IATA代码为JAD。 机场在Melbourne FIR中。

该航空气象观测是针对Perth Jandakot Airport在2024年6月18日 21:00, 当地时间进行的。

机场观察

风向为160°,速度为4 kt。

可见度为10 km 或者更多。

有疏云,零星散落的云朵在5.000 ft的高度 和 疏云,零星散落的云朵在5.900 ft的高度。 没有观察到天花板。

温度和风寒是11 °C。 露点为9 °C,相对湿度为88%。 海平面上的气压为1025 hPa (QNH)。

白天

今天,太阳从07:16升起,在17:19降落。 这适用于Perth Jandakot Airport,世界夏令时可能有所不同。 当地时间与世界标准时间之间的时差为+8 小时。 夏令时目前正在进行中。

公司介绍

在这个机场,你可以找到飞行俱乐部 和 跳伞中心。 这个机场上的公司有Royal Aero Club of Western Australia, FlyOnE Sustainable Aviation, WA Skydiving Academy 和 Skydive the Beach and Beyond Perth。

体会

到Vliegles.nl去找飞行课程,跳伞和其他飞行体验。 浏览页面,了解Perth Jandakot Airport附近所有可用的活动。 你也可以使用搜索功能来寻找你所在地附近的特定飞行课程、跳伞或其他飞行体验。

跑道

Id 标题 侧风 逆风 侧风 %
12/30 114°-294° 3 kt 3 kt 72 %
6R/24L 054°-234° 4 kt 1 kt 96 %
6L/24R 054°-234° 4 kt 1 kt 96 %

逆风成分最大的方向会被突出显示,并用于横风计算。 这并不一定意味着这个方向在使用。

乌云

5.000 ft SCT 疏云,零星散落的云朵
5.900 ft SCT 疏云,零星散落的云朵

温度 & 天气

温度 11 °C
露点 9 °C
相对湿度 88%
Kp-index 2 (0-9)

白天

日出
07:16 (9:56)
中午
12:17
日落
17:19

小工具

你想在你的网站上有一个关于Perth Jandakot Airport的当前航空天气(METAR)的小部件吗?

显示HTML代码
报告变更